Time;durP1;ratioP1;P1;durP2;ratioP2;P2;SDS_P1;SDS_P2;PMS_P1;PMS_P2;Temp;Humidity;BMP_temperature;BMP_pressure;BME280_temperature;BME280_humidity;BME280_pressure;Samples;Min_cycle;Max_cycle;Signal;HPM_P1;HPM_P2
2023/04/08 00:00:49;;;;;;;;;;;8.90;1.00;;;;;;5095337;28;19915;-73
2023/04/08 00:03:14;;;;;;;;;;;8.80;1.00;;;;;;5095256;28;19959;-74
2023/04/08 00:05:40;;;;;;;;;;;8.70;1.00;;;;;;5095164;28;20007;-73
2023/04/08 00:08:06;;;;;;;;;;;8.70;1.00;;;;;;5095188;28;20379;-71
2023/04/08 00:10:31;;;;;;;;;;;8.70;1.00;;;;;;5095470;28;19957;-73
2023/04/08 00:12:57;;;;;;;;;;;8.80;1.00;;;;;;5095210;28;19914;-73
2023/04/08 00:15:23;;;;;;;;;;;8.80;1.00;;;;;;5095037;28;19962;-73
2023/04/08 00:17:48;;;;;;;;;;;8.80;1.00;;;;;;5095196;28;19951;-72
2023/04/08 00:20:14;;;;;;;;;;;8.70;1.00;;;;;;5094176;28;19908;-73
2023/04/08 00:22:40;;;;;;;;;;;8.60;1.00;;;;;;5094871;28;19908;-72
2023/04/08 00:25:05;;;;;;;;;;;8.60;1.00;;;;;;5094970;28;20007;-73
2023/04/08 00:27:34;;;;;;;;;;;8.60;1.00;;;;;;5094767;28;20287;-72
2023/04/08 00:30:00;;;;;;;;;;;8.60;1.00;;;;;;5094783;28;19916;-72
2023/04/08 00:32:27;;;;;;;;;;;8.70;1.00;;;;;;5094941;28;19912;-72
2023/04/08 00:34:52;;;;;;;;;;;8.60;1.00;;;;;;5094680;28;19908;-74
2023/04/08 00:37:18;;;;;;;;;;;8.50;1.00;;;;;;5094895;28;19910;-75
2023/04/08 00:39:44;;;;;;;;;;;8.40;1.00;;;;;;5094502;28;19939;-73
2023/04/08 00:42:09;;;;;;;;;;;8.40;1.00;;;;;;5094576;28;19908;-73
2023/04/08 00:44:35;;;;;;;;;;;8.50;1.00;;;;;;5094624;28;19973;-73
2023/04/08 00:47:01;;;;;;;;;;;8.50;1.00;;;;;;5094625;28;19908;-74
2023/04/08 00:49:26;;;;;;;;;;;8.40;1.00;;;;;;5094649;28;20383;-72
2023/04/08 00:51:52;;;;;;;;;;;8.30;1.00;;;;;;5094430;28;20339;-72
2023/04/08 00:54:18;;;;;;;;;;;8.20;1.00;;;;;;5094355;28;19908;-73
2023/04/08 00:56:44;;;;;;;;;;;8.30;1.00;;;;;;5094374;28;19953;-73
2023/04/08 00:59:10;;;;;;;;;;;8.20;1.00;;;;;;5094248;28;19946;-72
2023/04/08 01:01:35;;;;;;;;;;;8.20;1.00;;;;;;5076089;28;19912;-73
2023/04/08 01:04:06;;;;;;;;;;;8.10;1.00;;;;;;5094133;28;19916;-73
2023/04/08 01:06:45;;;;;;;;;;;8.00;1.00;;;;;;5094214;28;19955;-73
2023/04/08 01:09:11;;;;;;;;;;;8.00;1.00;;;;;;5094246;28;19916;-72
2023/04/08 01:11:39;;;;;;;;;;;8.00;1.00;;;;;;5094185;28;19908;-73
2023/04/08 01:14:08;;;;;;;;;;;8.00;1.00;;;;;;5094066;28;19940;-73
2023/04/08 01:16:35;;;;;;;;;;;7.80;1.00;;;;;;5094257;28;19908;-74
2023/04/08 01:19:01;;;;;;;;;;;7.80;1.00;;;;;;5075874;28;19908;-74
2023/04/08 01:21:27;;;;;;;;;;;7.80;1.00;;;;;;5094182;28;19915;-73
2023/04/08 01:24:09;;;;;;;;;;;7.80;1.00;;;;;;5075808;28;20396;-72
2023/04/08 01:26:36;;;;;;;;;;;7.80;1.00;;;;;;5094078;28;20066;-73
2023/04/08 01:29:02;;;;;;;;;;;7.90;1.00;;;;;;5093832;28;20288;-73
2023/04/08 01:31:29;;;;;;;;;;;7.90;1.00;;;;;;5093870;28;20028;-72
2023/04/08 01:33:55;;;;;;;;;;;7.90;1.00;;;;;;5093800;28;19908;-72
2023/04/08 01:36:21;;;;;;;;;;;7.90;1.00;;;;;;5093743;28;19908;-72
2023/04/08 01:38:48;;;;;;;;;;;7.80;1.00;;;;;;5093755;28;19908;-72
2023/04/08 01:41:14;;;;;;;;;;;7.90;1.00;;;;;;5093359;28;20347;-71
2023/04/08 01:43:40;;;;;;;;;;;7.90;1.00;;;;;;5093917;28;20309;-73
2023/04/08 01:46:07;;;;;;;;;;;7.70;1.00;;;;;;5093638;28;19919;-73
2023/04/08 01:48:33;;;;;;;;;;;7.70;1.00;;;;;;5094174;28;19908;-73
2023/04/08 01:50:59;;;;;;;;;;;7.60;1.00;;;;;;5093640;28;19915;-72
2023/04/08 01:53:25;;;;;;;;;;;7.60;1.00;;;;;;5093588;28;19908;-74
2023/04/08 01:55:54;;;;;;;;;;;7.60;1.00;;;;;;5093635;28;20045;-73
2023/04/08 01:58:20;;;;;;;;;;;7.50;1.00;;;;;;5093526;28;19959;-73
2023/04/08 02:00:46;;;;;;;;;;;7.50;1.00;;;;;;5093544;28;20326;-71
2023/04/08 02:03:13;;;;;;;;;;;7.50;1.00;;;;;;5093929;28;19912;-72
2023/04/08 02:05:41;;;;;;;;;;;7.50;1.00;;;;;;5093421;28;19961;-72
2023/04/08 02:08:07;;;;;;;;;;;7.40;1.00;;;;;;5093423;28;19940;-73
2023/04/08 02:10:33;;;;;;;;;;;7.40;1.00;;;;;;5093441;28;19959;-74
2023/04/08 02:12:58;;;;;;;;;;;7.40;1.00;;;;;;5093448;28;19908;-73
2023/04/08 02:15:26;;;;;;;;;;;7.40;1.00;;;;;;5093562;28;19998;-73
2023/04/08 02:17:57;;;;;;;;;;;7.30;1.00;;;;;;5093400;28;20388;-73
2023/04/08 02:20:29;;;;;;;;;;;7.20;1.00;;;;;;5093394;28;19908;-73
2023/04/08 02:23:09;;;;;;;;;;;7.10;1.00;;;;;;5093486;28;20368;-74
2023/04/08 02:25:37;;;;;;;;;;;7.10;1.00;;;;;;5093234;28;19912;-73
2023/04/08 02:28:04;;;;;;;;;;;7.20;1.00;;;;;;5093798;28;20257;-73
2023/04/08 02:30:31;;;;;;;;;;;7.20;1.00;;;;;;5093255;28;19908;-73
2023/04/08 02:32:57;;;;;;;;;;;7.20;1.00;;;;;;5093493;28;20356;-72
2023/04/08 02:35:23;;;;;;;;;;;7.20;1.00;;;;;;5093284;28;19914;-72
2023/04/08 02:37:49;;;;;;;;;;;7.20;1.00;;;;;;5093192;28;19908;-72
2023/04/08 02:40:31;;;;;;;;;;;7.20;1.00;;;;;;5092942;28;19920;-73
2023/04/08 02:42:57;;;;;;;;;;;7.00;1.00;;;;;;5094660;28;19908;-73
2023/04/08 02:45:27;;;;;;;;;;;7.00;1.00;;;;;;5096751;28;19916;-74
2023/04/08 02:47:52;;;;;;;;;;;6.80;1.00;;;;;;5096818;28;19945;-72
2023/04/08 02:50:18;;;;;;;;;;;6.70;1.00;;;;;;5097101;28;19961;-74
2023/04/08 02:52:43;;;;;;;;;;;6.90;1.00;;;;;;5096653;28;19915;-73
2023/04/08 02:55:10;;;;;;;;;;;6.90;1.00;;;;;;5096713;28;20388;-72
2023/04/08 02:57:36;;;;;;;;;;;6.80;1.00;;;;;;5096449;28;20046;-73
2023/04/08 03:00:03;;;;;;;;;;;6.80;1.00;;;;;;5096485;28;19912;-72
2023/04/08 03:02:28;;;;;;;;;;;6.60;1.00;;;;;;5096477;28;19912;-72
2023/04/08 03:04:54;;;;;;;;;;;6.60;1.00;;;;;;5096339;28;20319;-74
2023/04/08 03:07:19;;;;;;;;;;;6.70;1.00;;;;;;5096422;28;19950;-73
2023/04/08 03:09:45;;;;;;;;;;;6.70;1.00;;;;;;5096364;28;19969;-73
2023/04/08 03:12:11;;;;;;;;;;;6.70;1.00;;;;;;5096290;28;20364;-74
2023/04/08 03:14:36;;;;;;;;;;;6.60;1.00;;;;;;5096232;28;20384;-71
2023/04/08 03:17:02;;;;;;;;;;;6.60;1.00;;;;;;5096486;28;19912;-72
2023/04/08 03:19:27;;;;;;;;;;;6.60;1.00;;;;;;5096192;28;19987;-73
2023/04/08 03:21:53;;;;;;;;;;;6.50;1.00;;;;;;5096296;28;19908;-72
2023/04/08 03:24:18;;;;;;;;;;;6.40;1.00;;;;;;5096041;28;19915;-72
2023/04/08 03:26:44;;;;;;;;;;;6.40;1.00;;;;;;5096089;28;19916;-74
2023/04/08 03:29:10;;;;;;;;;;;6.50;1.00;;;;;;5096071;28;19909;-73
2023/04/08 03:31:35;;;;;;;;;;;6.60;1.00;;;;;;5096047;28;20390;-73
2023/04/08 03:34:01;;;;;;;;;;;6.50;1.00;;;;;;5077713;28;20387;-72
2023/04/08 03:36:26;;;;;;;;;;;6.30;1.00;;;;;;5095841;28;19912;-72
2023/04/08 03:38:52;;;;;;;;;;;6.20;1.00;;;;;;5095822;28;19914;-72
2023/04/08 03:41:17;;;;;;;;;;;6.30;1.00;;;;;;5095396;28;20353;-72
2023/04/08 03:43:43;;;;;;;;;;;6.40;1.00;;;;;;5095757;28;19908;-73
2023/04/08 03:46:09;;;;;;;;;;;6.40;1.00;;;;;;5095624;28;19912;-73
2023/04/08 03:48:35;;;;;;;;;;;6.40;1.00;;;;;;5096001;28;19908;-74
2023/04/08 03:51:00;;;;;;;;;;;6.40;1.00;;;;;;5095517;28;19961;-72
2023/04/08 03:53:28;;;;;;;;;;;6.40;1.00;;;;;;5095017;28;19915;-74
2023/04/08 03:55:54;;;;;;;;;;;6.30;1.00;;;;;;5076741;28;19977;-72
2023/04/08 03:58:19;;;;;;;;;;;6.20;1.00;;;;;;5095317;28;19908;-72
2023/04/08 04:00:45;;;;;;;;;;;6.20;1.00;;;;;;5095511;28;19912;-72
2023/04/08 04:03:11;;;;;;;;;;;6.20;1.00;;;;;;5095408;28;19908;-72
2023/04/08 04:05:39;;;;;;;;;;;6.20;1.00;;;;;;5095306;28;19919;-74
2023/04/08 04:08:05;;;;;;;;;;;6.20;1.00;;;;;;5095187;28;19909;-72
2023/04/08 04:10:31;;;;;;;;;;;6.10;1.00;;;;;;5095115;28;19915;-73
2023/04/08 04:12:57;;;;;;;;;;;6.00;1.00;;;;;;5095307;28;20307;-72
2023/04/08 04:15:22;;;;;;;;;;;5.80;1.00;;;;;;5095038;28;19931;-73
2023/04/08 04:17:49;;;;;;;;;;;5.70;1.00;;;;;;5095172;28;19915;-73
2023/04/08 04:20:15;;;;;;;;;;;5.80;1.00;;;;;;5094950;28;20400;-72
2023/04/08 04:22:41;;;;;;;;;;;5.90;1.00;;;;;;5094891;28;19912;-72
2023/04/08 04:25:07;;;;;;;;;;;5.80;1.00;;;;;;5094711;28;19919;-74
2023/04/08 04:27:32;;;;;;;;;;;5.70;1.00;;;;;;5094812;28;20376;-72
2023/04/08 04:29:59;;;;;;;;;;;5.60;1.00;;;;;;5094780;28;20002;-72
2023/04/08 04:32:25;;;;;;;;;;;5.60;1.00;;;;;;5094691;28;19908;-72
2023/04/08 04:34:50;;;;;;;;;;;5.40;1.00;;;;;;5094887;28;19908;-73
2023/04/08 04:37:16;;;;;;;;;;;5.60;1.00;;;;;;5094784;28;20261;-72
2023/04/08 04:39:41;;;;;;;;;;;5.80;1.00;;;;;;5094517;28;19951;-74
2023/04/08 04:42:07;;;;;;;;;;;5.80;1.00;;;;;;5094521;28;19912;-72
2023/04/08 04:44:33;;;;;;;;;;;5.80;1.00;;;;;;5094533;28;19912;-73
2023/04/08 04:46:58;;;;;;;;;;;5.80;1.00;;;;;;5094842;28;20364;-73
2023/04/08 04:49:24;;;;;;;;;;;5.60;1.00;;;;;;5094414;28;19908;-73
2023/04/08 04:51:50;;;;;;;;;;;5.60;1.00;;;;;;5094613;28;19987;-72
2023/04/08 04:54:16;;;;;;;;;;;5.70;1.00;;;;;;5076133;28;20326;-72
2023/04/08 04:56:41;;;;;;;;;;;5.80;1.00;;;;;;5094191;28;19908;-73
2023/04/08 04:59:07;;;;;;;;;;;5.80;1.00;;;;;;5094691;28;20416;-73
2023/04/08 05:01:33;;;;;;;;;;;5.80;1.00;;;;;;5094188;28;20277;-73
2023/04/08 05:03:59;;;;;;;;;;;5.80;1.00;;;;;;5094407;28;19909;-72
2023/04/08 05:06:26;;;;;;;;;;;5.60;1.00;;;;;;5093858;28;19916;-72
2023/04/08 05:08:51;;;;;;;;;;;5.60;1.00;;;;;;5094159;28;19999;-73
2023/04/08 05:11:20;;;;;;;;;;;5.60;1.00;;;;;;5094271;28;19947;-73
2023/04/08 05:13:46;;;;;;;;;;;5.70;1.00;;;;;;5094348;28;19919;-72
2023/04/08 05:16:12;;;;;;;;;;;5.70;1.00;;;;;;5094037;28;20364;-73
2023/04/08 05:18:37;;;;;;;;;;;5.80;1.00;;;;;;5093980;28;19916;-73
2023/04/08 05:21:03;;;;;;;;;;;5.90;1.00;;;;;;5093952;28;19908;-73
2023/04/08 05:23:28;;;;;;;;;;;6.00;1.00;;;;;;5093918;28;20433;-72
2023/04/08 05:25:54;;;;;;;;;;;6.00;1.00;;;;;;5093801;28;20287;-73
2023/04/08 05:28:20;;;;;;;;;;;6.00;1.00;;;;;;5075753;28;19947;-73
2023/04/08 05:30:50;;;;;;;;;;;5.70;1.00;;;;;;5093796;28;19986;-75
2023/04/08 05:33:15;;;;;;;;;;;5.60;1.00;;;;;;5094136;28;19970;-72
2023/04/08 05:35:41;;;;;;;;;;;5.60;1.00;;;;;;5093802;28;19908;-74
2023/04/08 05:38:07;;;;;;;;;;;5.50;1.00;;;;;;5093824;28;19915;-73
2023/04/08 05:40:32;;;;;;;;;;;5.60;1.00;;;;;;5093663;28;19995;-72
2023/04/08 05:42:58;;;;;;;;;;;5.60;1.00;;;;;;5093959;28;19962;-73
2023/04/08 05:45:23;;;;;;;;;;;5.60;1.00;;;;;;5093604;28;19934;-72
2023/04/08 05:47:49;;;;;;;;;;;5.50;1.00;;;;;;5093633;28;19908;-71
2023/04/08 05:50:15;;;;;;;;;;;5.60;1.00;;;;;;5093645;28;19908;-73
2023/04/08 05:52:42;;;;;;;;;;;5.60;1.00;;;;;;5075522;28;19916;-73
2023/04/08 05:55:08;;;;;;;;;;;5.70;1.00;;;;;;5093581;28;19953;-73
2023/04/08 05:57:33;;;;;;;;;;;5.80;1.00;;;;;;5093549;28;19998;-73
2023/04/08 05:59:59;;;;;;;;;;;5.80;1.00;;;;;;5093531;28;19958;-72
2023/04/08 06:02:24;;;;;;;;;;;5.90;1.00;;;;;;5093711;28;19915;-74
2023/04/08 06:04:50;;;;;;;;;;;5.90;1.00;;;;;;5093625;28;19941;-74
2023/04/08 06:07:16;;;;;;;;;;;6.00;1.00;;;;;;5093462;28;20329;-73
2023/04/08 06:09:41;;;;;;;;;;;6.00;1.00;;;;;;5075260;28;19987;-74
2023/04/08 06:12:07;;;;;;;;;;;6.10;1.00;;;;;;5093575;28;19908;-74
2023/04/08 06:14:32;;;;;;;;;;;6.20;1.00;;;;;;5093628;28;19908;-73
2023/04/08 06:16:58;;;;;;;;;;;6.30;1.00;;;;;;5093340;28;20007;-73
2023/04/08 06:19:24;;;;;;;;;;;6.20;1.00;;;;;;5097321;28;19908;-72
2023/04/08 06:21:50;;;;;;;;;;;6.30;1.00;;;;;;5097262;28;20006;-72
2023/04/08 06:24:16;;;;;;;;;;;6.20;1.00;;;;;;5097223;28;19912;-73
2023/04/08 06:26:41;;;;;;;;;;;6.50;1.00;;;;;;5097214;28;19908;-73
2023/04/08 06:29:07;;;;;;;;;;;7.40;1.00;;;;;;5097144;28;20398;-74
2023/04/08 06:31:33;;;;;;;;;;;8.10;1.00;;;;;;5097340;28;19908;-74
2023/04/08 06:33:58;;;;;;;;;;;8.90;1.00;;;;;;5097079;28;19908;-73
2023/04/08 06:36:24;;;;;;;;;;;9.50;1.00;;;;;;5097184;28;20011;-72
2023/04/08 06:38:50;;;;;;;;;;;9.90;1.00;;;;;;5078805;28;19908;-73
2023/04/08 06:41:15;;;;;;;;;;;10.40;1.00;;;;;;5096560;28;19924;-72
2023/04/08 06:43:41;;;;;;;;;;;10.90;1.00;;;;;;5096899;28;19999;-74
2023/04/08 06:46:06;;;;;;;;;;;11.30;1.00;;;;;;5078552;28;20372;-74
2023/04/08 06:48:32;;;;;;;;;;;11.90;1.00;;;;;;5096768;28;19986;-72
2023/04/08 06:50:59;;;;;;;;;;;12.40;1.00;;;;;;5097059;28;19908;-74
2023/04/08 06:53:25;;;;;;;;;;;12.80;1.00;;;;;;5096794;28;20018;-73
2023/04/08 06:55:51;;;;;;;;;;;13.20;1.00;;;;;;5096706;28;19908;-74
2023/04/08 06:58:17;;;;;;;;;;;13.50;1.00;;;;;;5078332;28;19912;-72
2023/04/08 07:00:43;;;;;;;;;;;13.80;1.00;;;;;;5096504;28;19931;-73
2023/04/08 07:03:10;;;;;;;;;;;14.10;1.00;;;;;;5078266;28;19908;-74
2023/04/08 07:05:35;;;;;;;;;;;14.50;1.00;;;;;;5078210;28;19958;-74
2023/04/08 07:08:01;;;;;;;;;;;15.10;1.00;;;;;;5096387;28;20333;-74
2023/04/08 07:10:27;;;;;;;;;;;15.40;1.00;;;;;;5096435;28;19999;-73
2023/04/08 07:12:52;;;;;;;;;;;15.60;1.00;;;;;;5096414;28;19954;-73
2023/04/08 07:15:18;;;;;;;;;;;15.90;1.00;;;;;;5096256;28;20284;-74
2023/04/08 07:17:44;;;;;;;;;;;15.80;1.00;;;;;;5096611;28;19908;-74
2023/04/08 07:20:09;;;;;;;;;;;15.80;1.00;;;;;;5077996;28;19909;-73
2023/04/08 07:22:35;;;;;;;;;;;15.60;1.00;;;;;;5096205;28;19908;-73
2023/04/08 07:25:01;;;;;;;;;;;15.80;1.00;;;;;;5095999;28;19911;-73
2023/04/08 07:27:27;;;;;;;;;;;15.50;1.00;;;;;;5095998;28;19908;-73
2023/04/08 07:29:53;;;;;;;;;;;15.10;1.00;;;;;;5077581;28;19974;-73
2023/04/08 07:32:19;;;;;;;;;;;15.40;1.00;;;;;;5095657;28;19908;-75
2023/04/08 07:34:45;;;;;;;;;;;15.70;1.00;;;;;;5095892;28;19909;-73
2023/04/08 07:37:11;;;;;;;;;;;15.40;1.00;;;;;;5095550;28;19931;-74
2023/04/08 07:39:37;;;;;;;;;;;15.20;1.00;;;;;;5095594;28;20376;-73
2023/04/08 07:42:08;;;;;;;;;;;15.70;1.00;;;;;;5095910;28;19908;-74
2023/04/08 07:44:33;;;;;;;;;;;16.20;1.00;;;;;;5095645;28;19923;-73
2023/04/08 07:46:59;;;;;;;;;;;16.40;1.00;;;;;;5095623;28;20280;-74
2023/04/08 07:49:25;;;;;;;;;;;16.70;1.00;;;;;;5095652;28;19908;-74
2023/04/08 07:51:50;;;;;;;;;;;17.20;1.00;;;;;;5077833;28;19908;-73
2023/04/08 07:54:16;;;;;;;;;;;17.20;1.00;;;;;;5095517;28;19912;-74
2023/04/08 07:56:45;;;;;;;;;;;18.00;1.00;;;;;;5095433;28;19908;-74
2023/04/08 07:59:11;;;;;;;;;;;18.40;1.00;;;;;;5095378;28;19987;-74
2023/04/08 08:01:36;;;;;;;;;;;18.60;1.00;;;;;;5095419;28;19948;-73
2023/04/08 08:04:04;;;;;;;;;;;18.40;1.00;;;;;;5095328;28;19954;-74
2023/04/08 08:06:32;;;;;;;;;;;18.60;1.00;;;;;;5095147;28;20307;-72
2023/04/08 08:08:59;;;;;;;;;;;19.20;1.00;;;;;;5095166;28;19908;-73
2023/04/08 08:11:26;;;;;;;;;;;19.60;1.00;;;;;;5095188;28;19915;-73
2023/04/08 08:13:51;;;;;;;;;;;20.20;1.00;;;;;;5095288;28;19909;-73
2023/04/08 08:16:17;;;;;;;;;;;19.70;1.00;;;;;;5095110;28;19912;-73
2023/04/08 08:18:43;;;;;;;;;;;19.10;1.00;;;;;;5076780;28;19935;-73
2023/04/08 08:21:08;;;;;;;;;;;19.30;1.00;;;;;;5095003;28;19908;-74
2023/04/08 08:23:34;;;;;;;;;;;19.50;1.00;;;;;;5094889;28;19916;-72
2023/04/08 08:26:01;;;;;;;;;;;19.80;1.00;;;;;;5094949;28;19912;-71
2023/04/08 08:28:26;;;;;;;;;;;20.60;1.00;;;;;;5094880;28;19912;-72
2023/04/08 08:30:52;;;;;;;;;;;20.80;1.00;;;;;;5094840;28;19969;-74
2023/04/08 08:33:17;;;;;;;;;;;21.40;1.00;;;;;;5094921;28;20431;-70
2023/04/08 08:35:43;;;;;;;;;;;22.20;1.00;;;;;;5094872;28;20392;-73
2023/04/08 08:38:09;;;;;;;;;;;22.40;1.00;;;;;;5094619;28;19944;-72
2023/04/08 08:40:35;;;;;;;;;;;23.10;1.00;;;;;;5057729;28;19925;-72
2023/04/08 08:43:00;;;;;;;;;;;22.30;1.00;;;;;;5056430;28;20304;-73
2023/04/08 08:45:26;;;;;;;;;;;21.30;1.00;;;;;;5074343;28;19924;-73
2023/04/08 08:47:52;;;;;;;;;;;21.10;1.00;;;;;;5074144;28;20276;-72
2023/04/08 08:50:18;;;;;;;;;;;22.50;1.00;;;;;;5073244;28;19909;-74
2023/04/08 08:52:47;;;;;;;;;;;21.90;1.00;;;;;;5074579;28;20266;-71
2023/04/08 08:55:13;;;;;;;;;;;23.20;1.00;;;;;;5074314;28;19912;-71
2023/04/08 08:57:39;;;;;;;;;;;23.60;1.00;;;;;;5074237;28;19916;-72
2023/04/08 09:00:04;;;;;;;;;;;24.40;1.00;;;;;;5073696;28;20058;-72
2023/04/08 09:02:30;;;;;;;;;;;25.90;1.00;;;;;;5074147;28;20360;-72
2023/04/08 09:05:00;;;;;;;;;;;25.30;1.00;;;;;;5056285;28;19917;-72
2023/04/08 09:07:27;;;;;;;;;;;25.60;1.00;;;;;;5074012;28;19912;-72
2023/04/08 09:09:53;;;;;;;;;;;25.60;1.00;;;;;;5077973;28;19908;-72
2023/04/08 09:12:20;;;;;;;;;;;26.30;1.00;;;;;;5072869;28;20278;-72
2023/04/08 09:14:46;;;;;;;;;;;26.40;1.00;;;;;;5071368;28;19908;-73
2023/04/08 09:17:12;;;;;;;;;;;27.50;1.00;;;;;;5053108;28;19908;-72
2023/04/08 09:19:37;;;;;;;;;;;28.20;1.00;;;;;;5073431;28;20312;-73
2023/04/08 09:22:04;;;;;;;;;;;26.60;1.00;;;;;;5073932;28;20373;-72
2023/04/08 09:24:30;;;;;;;;;;;27.90;1.00;;;;;;5073782;28;19915;-73
2023/04/08 09:26:56;;;;;;;;;;;28.50;1.00;;;;;;5073935;28;19913;-73
2023/04/08 09:29:25;;;;;;;;;;;28.50;1.00;;;;;;5073729;28;19909;-74
2023/04/08 09:31:54;;;;;;;;;;;30.00;1.00;;;;;;5073576;28;19909;-73
2023/04/08 09:34:22;;;;;;;;;;;30.40;1.00;;;;;;5074124;28;20250;-74
2023/04/08 09:36:51;;;;;;;;;;;31.90;1.00;;;;;;5074017;28;19958;-73
2023/04/08 09:39:16;;;;;;;;;;;32.80;1.00;;;;;;5073684;28;19933;-72
2023/04/08 09:41:43;;;;;;;;;;;32.70;1.00;;;;;;5059028;28;20011;-72
2023/04/08 09:44:09;;;;;;;;;;;33.70;1.00;;;;;;5073388;28;19915;-72
2023/04/08 09:46:37;;;;;;;;;;;35.00;1.00;;;;;;5073639;28;19943;-73
2023/04/08 09:49:06;;;;;;;;;;;34.60;1.00;;;;;;5073582;28;19909;-73
2023/04/08 09:51:35;;;;;;;;;;;33.50;1.00;;;;;;5072852;28;19908;-74
2023/04/08 09:54:02;;;;;;;;;;;33.70;1.00;;;;;;5097457;28;19908;-74
2023/04/08 09:56:35;;;;;;;;;;;34.60;1.00;;;;;;5097619;28;19908;-72
2023/04/08 09:59:08;;;;;;;;;;;35.20;1.00;;;;;;5097883;28;19916;-73
2023/04/08 10:01:38;;;;;;;;;;;35.10;1.00;;;;;;5097673;28;19912;-72
2023/04/08 10:04:07;;;;;;;;;;;36.10;1.00;;;;;;5097592;28;19912;-73
2023/04/08 10:06:33;;;;;;;;;;;35.70;1.00;;;;;;5097811;28;19915;-73
2023/04/08 10:09:00;;;;;;;;;;;36.20;1.00;;;;;;5097911;28;19908;-73
2023/04/08 10:11:26;;;;;;;;;;;36.20;1.00;;;;;;5078930;28;19998;-73
2023/04/08 10:13:52;;;;;;;;;;;36.20;1.00;;;;;;5097458;28;19955;-74
2023/04/08 10:16:23;;;;;;;;;;;33.80;1.00;;;;;;5097357;28;20448;-73
2023/04/08 10:18:51;;;;;;;;;;;33.90;1.00;;;;;;5097321;28;19961;-75
2023/04/08 10:21:36;;;;;;;;;;;34.70;1.00;;;;;;5097468;28;19957;-74
2023/04/08 10:24:05;;;;;;;;;;;34.70;1.00;;;;;;5097356;28;19935;-72
2023/04/08 10:26:35;;;;;;;;;;;29.20;1.00;;;;;;5097540;28;19914;-73
2023/04/08 10:29:20;;;;;;;;;;;31.50;1.00;;;;;;5097348;28;19915;-72
2023/04/08 10:31:46;;;;;;;;;;;34.30;1.00;;;;;;5097303;28;19931;-73
2023/04/08 10:34:18;;;;;;;;;;;36.00;1.00;;;;;;5096994;28;19908;-74
2023/04/08 10:36:44;;;;;;;;;;;36.40;1.00;;;;;;5096993;28;19912;-74
2023/04/08 10:39:11;;;;;;;;;;;32.60;1.00;;;;;;5096397;28;20007;-73
2023/04/08 10:41:47;;;;;;;;;;;30.50;1.00;;;;;;5096324;28;19967;-73
2023/04/08 10:44:16;;;;;;;;;;;27.80;1.00;;;;;;5096901;28;19908;-73
2023/04/08 10:46:42;;;;;;;;;;;30.20;1.00;;;;;;5096902;28;20398;-71
2023/04/08 10:49:08;;;;;;;;;;;33.40;1.00;;;;;;5096839;28;19908;-74
2023/04/08 10:51:36;;;;;;;;;;;33.80;1.00;;;;;;5096777;28;19936;-73
2023/04/08 10:54:06;;;;;;;;;;;34.70;1.00;;;;;;5094802;28;19938;-73
2023/04/08 10:56:32;;;;;;;;;;;34.70;1.00;;;;;;5095035;28;19912;-73
2023/04/08 10:58:58;;;;;;;;;;;35.10;1.00;;;;;;5095093;28;19930;-74
2023/04/08 11:01:24;;;;;;;;;;;34.80;1.00;;;;;;5095157;28;19915;-73
2023/04/08 11:03:50;;;;;;;;;;;33.60;1.00;;;;;;5094553;28;19990;-73
2023/04/08 11:06:18;;;;;;;;;;;33.90;1.00;;;;;;5095022;28;20105;-74
2023/04/08 11:08:44;;;;;;;;;;;33.40;1.00;;;;;;5096146;28;19911;-72
2023/04/08 11:11:10;;;;;;;;;;;35.10;1.00;;;;;;5096373;28;19915;-74
2023/04/08 11:13:38;;;;;;;;;;;33.00;1.00;;;;;;5096313;28;20304;-73
2023/04/08 11:16:05;;;;;;;;;;;33.70;1.00;;;;;;5096240;28;19912;-74
2023/04/08 11:18:31;;;;;;;;;;;34.30;1.00;;;;;;5096315;28;19908;-74
2023/04/08 11:20:57;;;;;;;;;;;36.00;1.00;;;;;;5096718;28;20283;-72
2023/04/08 11:23:26;;;;;;;;;;;35.30;1.00;;;;;;5096176;28;19954;-72
2023/04/08 11:25:51;;;;;;;;;;;34.10;1.00;;;;;;5096117;28;19953;-74
2023/04/08 11:28:17;;;;;;;;;;;34.50;1.00;;;;;;5096051;28;19912;-73
2023/04/08 11:30:43;;;;;;;;;;;34.20;1.00;;;;;;5096208;28;19952;-72
2023/04/08 11:33:09;;;;;;;;;;;33.60;1.00;;;;;;5096235;28;19951;-72
2023/04/08 11:35:39;;;;;;;;;;;33.10;1.00;;;;;;5095817;28;19912;-73
2023/04/08 11:38:04;;;;;;;;;;;34.90;1.00;;;;;;5095877;28;19908;-75
2023/04/08 11:40:30;;;;;;;;;;;35.70;1.00;;;;;;5095628;28;19920;-74
2023/04/08 11:42:56;;;;;;;;;;;36.10;1.00;;;;;;5096052;28;19912;-74
2023/04/08 11:45:21;;;;;;;;;;;34.80;1.00;;;;;;5095873;28;19908;-73
2023/04/08 11:47:47;;;;;;;;;;;34.00;1.00;;;;;;5095759;28;19995;-73
2023/04/08 11:50:21;;;;;;;;;;;34.20;1.00;;;;;;5096057;28;20379;-74
2023/04/08 11:52:48;;;;;;;;;;;33.70;1.00;;;;;;5095803;28;20003;-73
2023/04/08 11:55:24;;;;;;;;;;;36.60;1.00;;;;;;5095454;28;19916;-73
2023/04/08 11:57:50;;;;;;;;;;;37.40;1.00;;;;;;5077285;28;19908;-73
2023/04/08 12:00:16;;;;;;;;;;;37.80;1.00;;;;;;5095890;28;19915;-73
2023/04/08 12:02:42;;;;;;;;;;;36.70;1.00;;;;;;5095407;28;19908;-74
2023/04/08 12:05:07;;;;;;;;;;;40.20;1.00;;;;;;5095428;28;19908;-73
2023/04/08 12:07:33;;;;;;;;;;;40.10;1.00;;;;;;5095449;28;19908;-74
2023/04/08 12:10:00;;;;;;;;;;;39.70;1.00;;;;;;5095242;28;19912;-73
2023/04/08 12:12:25;;;;;;;;;;;39.10;1.00;;;;;;5095184;28;19908;-74
2023/04/08 12:14:51;;;;;;;;;;;40.50;1.00;;;;;;5094499;28;19912;-74
2023/04/08 12:17:16;;;;;;;;;;;37.60;1.00;;;;;;5095070;28;19939;-73
2023/04/08 12:19:42;;;;;;;;;;;37.80;1.00;;;;;;5076885;28;19915;-74
2023/04/08 12:22:08;;;;;;;;;;;39.30;1.00;;;;;;5095223;28;20322;-74
2023/04/08 12:24:33;;;;;;;;;;;37.60;1.00;;;;;;5094980;28;19908;-74
2023/04/08 12:27:00;;;;;;;;;;;36.50;1.00;;;;;;5076777;28;19909;-73
2023/04/08 12:29:26;;;;;;;;;;;37.10;1.00;;;;;;5094914;28;19919;-74
2023/04/08 12:31:52;;;;;;;;;;;36.60;1.00;;;;;;5094800;28;19908;-73
2023/04/08 12:34:18;;;;;;;;;;;37.20;1.00;;;;;;5094671;28;19958;-73
2023/04/08 12:36:43;;;;;;;;;;;39.70;1.00;;;;;;5094689;28;19912;-73
2023/04/08 12:39:09;;;;;;;;;;;37.90;1.00;;;;;;5094875;28;19909;-74
2023/04/08 12:41:35;;;;;;;;;;;39.70;1.00;;;;;;5094245;28;19970;-73
2023/04/08 12:44:00;;;;;;;;;;;39.10;1.00;;;;;;5094657;28;19916;-73
2023/04/08 12:46:27;;;;;;;;;;;36.40;1.00;;;;;;5094927;28;19912;-74
2023/04/08 12:48:52;;;;;;;;;;;37.60;1.00;;;;;;5094775;28;20389;-74
2023/04/08 12:51:19;;;;;;;;;;;37.80;1.00;;;;;;5094476;28;19951;-72
2023/04/08 12:53:44;;;;;;;;;;;40.60;1.00;;;;;;5094517;28;19912;-74
2023/04/08 12:56:10;;;;;;;;;;;41.30;1.00;;;;;;5094374;28;19912;-73
2023/04/08 12:58:36;;;;;;;;;;;36.30;1.00;;;;;;5094415;28;19980;-73
2023/04/08 13:01:01;;;;;;;;;;;35.00;1.00;;;;;;5094361;28;19908;-74
2023/04/08 13:03:29;;;;;;;;;;;35.90;1.00;;;;;;5094500;28;19908;-74
2023/04/08 13:05:55;;;;;;;;;;;38.80;1.00;;;;;;5094266;28;19991;-75
2023/04/08 13:08:22;;;;;;;;;;;40.10;1.00;;;;;;5094383;28;19908;-74
2023/04/08 13:10:47;;;;;;;;;;;39.20;1.00;;;;;;5094444;28;19953;-75
2023/04/08 13:13:13;;;;;;;;;;;38.80;1.00;;;;;;5094040;28;19911;-74
2023/04/08 13:15:38;;;;;;;;;;;39.70;1.00;;;;;;5094052;28;20284;-73
2023/04/08 13:18:04;;;;;;;;;;;39.20;1.00;;;;;;5094073;28;20291;-75
2023/04/08 13:20:30;;;;;;;;;;;37.40;1.00;;;;;;5094133;28;19961;-72
2023/04/08 13:22:56;;;;;;;;;;;37.10;1.00;;;;;;5094003;28;19908;-73
2023/04/08 13:25:21;;;;;;;;;;;38.70;1.00;;;;;;5094151;28;20268;-74
2023/04/08 13:27:47;;;;;;;;;;;39.80;1.00;;;;;;5094025;28;19931;-76
2023/04/08 13:30:12;;;;;;;;;;;40.70;1.00;;;;;;5094223;28;19916;-73
2023/04/08 13:32:38;;;;;;;;;;;41.40;1.00;;;;;;5093857;28;19908;-74
2023/04/08 13:35:04;;;;;;;;;;;40.40;1.00;;;;;;5093765;28;19965;-74
2023/04/08 13:37:29;;;;;;;;;;;40.40;1.00;;;;;;5094041;28;19908;-74
2023/04/08 13:39:56;;;;;;;;;;;40.10;1.00;;;;;;5093698;28;20448;-74
2023/04/08 13:42:22;;;;;;;;;;;39.50;1.00;;;;;;5093676;28;19958;-72
2023/04/08 13:44:48;;;;;;;;;;;38.90;1.00;;;;;;5093776;28;19908;-74
2023/04/08 13:47:13;;;;;;;;;;;39.60;1.00;;;;;;5093453;28;20284;-73
2023/04/08 13:49:39;;;;;;;;;;;38.70;1.00;;;;;;5093486;28;19961;-73
2023/04/08 13:52:05;;;;;;;;;;;39.10;1.00;;;;;;5093643;28;20385;-73
2023/04/08 13:54:31;;;;;;;;;;;38.90;1.00;;;;;;5093518;28;19915;-74
2023/04/08 13:56:56;;;;;;;;;;;38.40;1.00;;;;;;5093484;28;19912;-74
2023/04/08 13:59:22;;;;;;;;;;;36.90;1.00;;;;;;5093811;28;20046;-73
2023/04/08 14:01:47;;;;;;;;;;;36.30;1.00;;;;;;5093579;28;19914;-72
2023/04/08 14:04:13;;;;;;;;;;;36.50;1.00;;;;;;5093576;28;19908;-73
2023/04/08 14:06:39;;;;;;;;;;;36.60;1.00;;;;;;5094012;28;19908;-73
2023/04/08 14:09:05;;;;;;;;;;;36.90;1.00;;;;;;5093500;28;19908;-73
2023/04/08 14:11:30;;;;;;;;;;;36.10;1.00;;;;;;5093536;28;19995;-73
2023/04/08 14:13:56;;;;;;;;;;;36.60;1.00;;;;;;5093438;28;19912;-73
2023/04/08 14:16:21;;;;;;;;;;;35.90;1.00;;;;;;5093433;28;19959;-73
2023/04/08 14:18:47;;;;;;;;;;;33.40;1.00;;;;;;5093428;28;19912;-73
2023/04/08 14:21:14;;;;;;;;;;;34.00;1.00;;;;;;5093466;28;19908;-74
2023/04/08 14:23:40;;;;;;;;;;;35.70;1.00;;;;;;5093398;28;19908;-72
2023/04/08 14:26:05;;;;;;;;;;;35.40;1.00;;;;;;5093337;28;20352;-74
2023/04/08 14:28:31;;;;;;;;;;;32.20;1.00;;;;;;5093317;28;19908;-74
2023/04/08 14:30:56;;;;;;;;;;;31.90;1.00;;;;;;5093315;28;19923;-72